Bangkok Bridge — 3FTZ8 — position and weather

sailwx.info

Track history (hours):
 
Tides and Currents Weather Stations Pressure Air Temp Water Temp Dewpoint Dewpoint Depression Visibility Wind Speed Wind Dir Waves Ship Positions

Bangkok Bridge

Last reported at 2014-Oct-17 21:33 UTC. Time now 2014-Oct-22 04:58 UTC.
Position N 35°11' E 139°45'.

Length 267 m; draft 12.2 m.

Type: Ship (hazmat cat A). MMSI: 353368000.

Date/timePositionNaut miles runAvg speedWind from/ knotsBaromVisibWave heightAir tempDewpointWater temp
2014-Oct-17 21:33N 35°11' E 139°45'1212.4
2014-Oct-17 20:33N 35°23' E 139°42'1212.3
2014-Oct-17 19:33N 35°34' E 139°49'1 0.1
2014-Oct-17 09:33N 35°35' E 139°48'6 5.6
2014-Oct-17 08:33N 35°31' E 139°52'1211.6
2014-Oct-17 07:33N 35°21' E 139°45'1211.8
2014-Oct-17 06:32N 35°09' E 139°46'  
2014-Oct-13 19:33N 23°51' E 118°24'24117.2
2014-Oct-13 05:33N 22°34' E 114°16'0 0.0
2014-Oct-13 04:31N 22°34' E 114°16'0 0.0
2014-Oct-13 03:31N 22°34' E 114°16'0 0.0
2014-Oct-13 02:31N 22°34' E 114°16'0 0.0
2014-Oct-13 01:31N 22°34' E 114°16'0 0.0
2014-Oct-13 00:31N 22°34' E 114°16'0 0.0
2014-Oct-12 23:31N 22°34' E 114°16'0 0.0
2014-Oct-12 22:31N 22°34' E 114°16'0 0.0
2014-Oct-12 21:31N 22°34' E 114°16'0 0.0
2014-Oct-12 20:31N 22°34' E 114°16'0 0.0
2014-Oct-12 18:07N 22°34' E 114°16'0 0.0
2014-Oct-12 17:31N 22°34' E 114°16'1 0.8
2014-Oct-12 16:33N 22°34' E 114°16'19 2.6
2014-Oct-12 09:21N 22°18' E 114°06'2 0.4
2014-Oct-12 03:32N 22°19' E 114°07'1 0.2
2014-Oct-11 20:34N 22°19' E 114°06'19715.1
2014-Oct-11 07:31N 23°11' E 117°32'2721.0
2014-Oct-11 06:14N 23°28' E 117°55'1920.4
2014-Oct-11 05:18N 23°41' E 118°10'1419.2
2014-Oct-11 04:34N 23°54' E 118°17'1716.8
2014-Oct-11 03:34N 24°10' E 118°18'1414.2
2014-Oct-11 02:33N 24°21' E 118°09'9 8.5
2014-Oct-11 01:33N 24°27' E 118°01'0 0.1
2014-Oct-11 00:26N 24°27' E 118°01'0 0.0
2014-Oct-10 23:26N 24°27' E 118°01'0 0.0
2014-Oct-10 22:20N 24°27' E 118°01'0 0.0
2014-Oct-10 20:32N 24°27' E 118°01'0 0.0
2014-Oct-10 19:32N 24°27' E 118°01'0 0.0
2014-Oct-10 18:32N 24°27' E 118°01'5 5.4
2014-Oct-10 17:33N 24°24' E 118°06'1211.5
2014-Oct-10 16:33N 24°16' E 118°15'1211.9
2014-Oct-10 15:32N 24°13' E 118°28'1512.5
2014-Oct-10 14:18N 24°20' E 118°43'2512.7
2014-Oct-10 12:22N 24°33' E 119°05'911.1
2014-Oct-10 11:32N 24°38' E 119°15'33615.3
2014-Oct-09 13:32N 29°24' E 122°32'1717.3
2014-Oct-09 12:33N 29°40' E 122°28'1414.1
2014-Oct-09 11:33N 29°48' E 122°14'1212.7
2014-Oct-09 10:33N 29°55' E 122°02'1010.2
2014-Oct-09 09:33N 29°57' E 121°50'0 0.0
2014-Oct-09 08:19N 29°57' E 121°50'0 0.0
2014-Oct-09 07:22N 29°57' E 121°50'0 0.0
2014-Oct-09 06:28N 29°57' E 121°50'0 0.0
2014-Oct-09 05:28N 29°57' E 121°50'0 0.0
2014-Oct-09 04:10N 29°57' E 121°50'0 0.0
2014-Oct-09 03:22N 29°57' E 121°50'0 0.0
2014-Oct-09 02:22N 29°57' E 121°50'0 0.0
2014-Oct-09 01:16N 29°57' E 121°50'0 0.0
2014-Oct-09 00:22N 29°57' E 121°50'0 0.0
2014-Oct-08 23:28N 29°57' E 121°50'0 0.0
2014-Oct-08 22:22N 29°57' E 121°50'0 0.0
2014-Oct-08 21:28N 29°57' E 121°50'0 0.0
2014-Oct-08 20:28N 29°57' E 121°50'5 5.0
2014-Oct-08 19:33N 29°57' E 121°55'1313.1
2014-Oct-08 18:33N 29°55' E 122°10'1211.8
2014-Oct-08 17:33N 29°45' E 122°19'9 9.4
2014-Oct-08 16:33N 29°44' E 122°29'1 0.3
2014-Oct-08 14:14N 29°44' E 122°28'0 0.0
2014-Oct-08 07:32N 29°44' E 122°29'0 0.0
2014-Oct-08 06:26N 29°44' E 122°29'0 0.0
2014-Oct-08 01:26N 29°44' E 122°28'0 0.0
2014-Oct-07 23:26N 29°44' E 122°28'0 0.0
2014-Oct-07 22:14N 29°44' E 122°28'  
Track history (hours):
 
Tides and Currents Weather Stations Pressure Air Temp Water Temp Dewpoint Dewpoint Depression Visibility Wind Speed Wind Dir Waves Ship Positions

Bangkok Bridge

Last reported at 2014-Oct-17 21:33 UTC. Time now 2014-Oct-22 04:58 UTC.
Position N 35°11' E 139°45'.

Length 267 m; draft 12.2 m.

Type: Ship (hazmat cat A). MMSI: 353368000.

Date/timePositionNaut miles runAvg speedWind from/ knotsBaromVisibWave heightAir tempDewpointWater temp
2014-Oct-17 21:33N 35°11' E 139°45'1212.4
2014-Oct-17 20:33N 35°23' E 139°42'1212.3
2014-Oct-17 19:33N 35°34' E 139°49'1 0.1
2014-Oct-17 09:33N 35°35' E 139°48'6 5.6
2014-Oct-17 08:33N 35°31' E 139°52'1211.6
2014-Oct-17 07:33N 35°21' E 139°45'1211.8
2014-Oct-17 06:32N 35°09' E 139°46'  
2014-Oct-13 19:33N 23°51' E 118°24'24117.2
2014-Oct-13 05:33N 22°34' E 114°16'0 0.0
2014-Oct-13 04:31N 22°34' E 114°16'0 0.0
2014-Oct-13 03:31N 22°34' E 114°16'0 0.0
2014-Oct-13 02:31N 22°34' E 114°16'0 0.0
2014-Oct-13 01:31N 22°34' E 114°16'0 0.0
2014-Oct-13 00:31N 22°34' E 114°16'0 0.0
2014-Oct-12 23:31N 22°34' E 114°16'0 0.0
2014-Oct-12 22:31N 22°34' E 114°16'0 0.0
2014-Oct-12 21:31N 22°34' E 114°16'0 0.0
2014-Oct-12 20:31N 22°34' E 114°16'0 0.0
2014-Oct-12 18:07N 22°34' E 114°16'0 0.0
2014-Oct-12 17:31N 22°34' E 114°16'1 0.8
2014-Oct-12 16:33N 22°34' E 114°16'19 2.6
2014-Oct-12 09:21N 22°18' E 114°06'2 0.4
2014-Oct-12 03:32N 22°19' E 114°07'1 0.2
2014-Oct-11 20:34N 22°19' E 114°06'19715.1
2014-Oct-11 07:31N 23°11' E 117°32'2721.0
2014-Oct-11 06:14N 23°28' E 117°55'1920.4
2014-Oct-11 05:18N 23°41' E 118°10'1419.2
2014-Oct-11 04:34N 23°54' E 118°17'1716.8
2014-Oct-11 03:34N 24°10' E 118°18'1414.2
2014-Oct-11 02:33N 24°21' E 118°09'9 8.5
2014-Oct-11 01:33N 24°27' E 118°01'0 0.1
2014-Oct-11 00:26N 24°27' E 118°01'0 0.0
2014-Oct-10 23:26N 24°27' E 118°01'0 0.0
2014-Oct-10 22:20N 24°27' E 118°01'0 0.0
2014-Oct-10 20:32N 24°27' E 118°01'0 0.0
2014-Oct-10 19:32N 24°27' E 118°01'0 0.0
2014-Oct-10 18:32N 24°27' E 118°01'5 5.4
2014-Oct-10 17:33N 24°24' E 118°06'1211.5
2014-Oct-10 16:33N 24°16' E 118°15'1211.9
2014-Oct-10 15:32N 24°13' E 118°28'1512.5
2014-Oct-10 14:18N 24°20' E 118°43'2512.7
2014-Oct-10 12:22N 24°33' E 119°05'911.1
2014-Oct-10 11:32N 24°38' E 119°15'33615.3
2014-Oct-09 13:32N 29°24' E 122°32'1717.3
2014-Oct-09 12:33N 29°40' E 122°28'1414.1
2014-Oct-09 11:33N 29°48' E 122°14'1212.7
2014-Oct-09 10:33N 29°55' E 122°02'1010.2
2014-Oct-09 09:33N 29°57' E 121°50'0 0.0
2014-Oct-09 08:19N 29°57' E 121°50'0 0.0
2014-Oct-09 07:22N 29°57' E 121°50'0 0.0
2014-Oct-09 06:28N 29°57' E 121°50'0 0.0
2014-Oct-09 05:28N 29°57' E 121°50'0 0.0
2014-Oct-09 04:10N 29°57' E 121°50'0 0.0
2014-Oct-09 03:22N 29°57' E 121°50'0 0.0
2014-Oct-09 02:22N 29°57' E 121°50'0 0.0
2014-Oct-09 01:16N 29°57' E 121°50'0 0.0
2014-Oct-09 00:22N 29°57' E 121°50'0 0.0
2014-Oct-08 23:28N 29°57' E 121°50'0 0.0
2014-Oct-08 22:22N 29°57' E 121°50'0 0.0
2014-Oct-08 21:28N 29°57' E 121°50'0 0.0
2014-Oct-08 20:28N 29°57' E 121°50'5 5.0
2014-Oct-08 19:33N 29°57' E 121°55'1313.1
2014-Oct-08 18:33N 29°55' E 122°10'1211.8
2014-Oct-08 17:33N 29°45' E 122°19'9 9.4
2014-Oct-08 16:33N 29°44' E 122°29'1 0.3
2014-Oct-08 14:14N 29°44' E 122°28'0 0.0
2014-Oct-08 07:32N 29°44' E 122°29'0 0.0
2014-Oct-08 06:26N 29°44' E 122°29'0 0.0
2014-Oct-08 01:26N 29°44' E 122°28'0 0.0
2014-Oct-07 23:26N 29°44' E 122°28'0 0.0
2014-Oct-07 22:14N 29°44' E 122°28'  

Dump ship's entire track history